sensor_id;sensor_type;location;lat;lon;timestamp;P1;durP1;ratioP1;P2;durP2;ratioP2
22046;SDS011;11187;49.412;20.956;2023-12-20T00:02:24;28.10;;;25.27;;
22046;SDS011;11187;49.412;20.956;2023-12-20T00:05:11;29.17;;;26.00;;
22046;SDS011;11187;49.412;20.956;2023-12-20T00:07:44;28.15;;;25.25;;
22046;SDS011;11187;49.412;20.956;2023-12-20T00:10:31;28.95;;;25.52;;
22046;SDS011;11187;49.412;20.956;2023-12-20T00:13:11;29.67;;;26.52;;
22046;SDS011;11187;49.412;20.956;2023-12-20T00:15:51;29.98;;;26.75;;
22046;SDS011;11187;49.412;20.956;2023-12-20T00:18:31;29.23;;;26.13;;
22046;SDS011;11187;49.412;20.956;2023-12-20T00:21:18;28.63;;;25.77;;
22046;SDS011;11187;49.412;20.956;2023-12-20T00:23:58;30.60;;;27.33;;
22046;SDS011;11187;49.412;20.956;2023-12-20T00:26:38;28.13;;;25.17;;
22046;SDS011;11187;49.412;20.956;2023-12-20T00:29:18;28.67;;;25.85;;
22046;SDS011;11187;49.412;20.956;2023-12-20T00:32:05;27.75;;;24.05;;
22046;SDS011;11187;49.412;20.956;2023-12-20T00:34:38;27.90;;;24.25;;
22046;SDS011;11187;49.412;20.956;2023-12-20T00:37:25;31.92;;;26.63;;
22046;SDS011;11187;49.412;20.956;2023-12-20T00:40:05;28.73;;;25.73;;
22046;SDS011;11187;49.412;20.956;2023-12-20T00:42:59;31.08;;;26.80;;
22046;SDS011;11187;49.412;20.956;2023-12-20T00:45:56;29.65;;;26.45;;
22046;SDS011;11187;49.412;20.956;2023-12-20T00:48:30;28.27;;;25.25;;
22046;SDS011;11187;49.412;20.956;2023-12-20T00:51:16;28.58;;;25.58;;
22046;SDS011;11187;49.412;20.956;2023-12-20T00:53:53;28.55;;;25.50;;
22046;SDS011;11187;49.412;20.956;2023-12-20T00:56:41;28.17;;;25.17;;
22046;SDS011;11187;49.412;20.956;2023-12-20T00:59:16;26.60;;;24.05;;
22046;SDS011;11187;49.412;20.956;2023-12-20T01:02:12;27.60;;;24.77;;
22046;SDS011;11187;49.412;20.956;2023-12-20T01:04:46;27.77;;;25.00;;
22046;SDS011;11187;49.412;20.956;2023-12-20T01:07:39;26.27;;;23.27;;
22046;SDS011;11187;49.412;20.956;2023-12-20T01:10:13;27.17;;;24.42;;
22046;SDS011;11187;49.412;20.956;2023-12-20T01:13:08;27.30;;;24.33;;
22046;SDS011;11187;49.412;20.956;2023-12-20T01:16:02;26.65;;;24.10;;
22046;SDS011;11187;49.412;20.956;2023-12-20T01:18:37;28.55;;;25.58;;
22046;SDS011;11187;49.412;20.956;2023-12-20T01:21:23;29.27;;;26.38;;
22046;SDS011;11187;49.412;20.956;2023-12-20T01:23:57;27.55;;;24.70;;
22046;SDS011;11187;49.412;20.956;2023-12-20T01:26:43;31.75;;;26.33;;
22046;SDS011;11187;49.412;20.956;2023-12-20T01:29:17;28.65;;;24.85;;
22046;SDS011;11187;49.412;20.956;2023-12-20T01:32:03;27.58;;;24.88;;
22046;SDS011;11187;49.412;20.956;2023-12-20T01:34:37;29.48;;;24.90;;
22046;SDS011;11187;49.412;20.956;2023-12-20T01:37:23;26.95;;;24.27;;
22046;SDS011;11187;49.412;20.956;2023-12-20T01:39:58;27.30;;;24.40;;
22046;SDS011;11187;49.412;20.956;2023-12-20T01:42:44;28.00;;;24.55;;
22046;SDS011;11187;49.412;20.956;2023-12-20T01:45:18;31.98;;;26.38;;
22046;SDS011;11187;49.412;20.956;2023-12-20T01:48:04;27.63;;;25.05;;
22046;SDS011;11187;49.412;20.956;2023-12-20T01:50:39;29.75;;;26.58;;
22046;SDS011;11187;49.412;20.956;2023-12-20T01:53:26;32.25;;;26.65;;
22046;SDS011;11187;49.412;20.956;2023-12-20T01:56:01;28.98;;;26.10;;
22046;SDS011;11187;49.412;20.956;2023-12-20T01:58:48;33.35;;;26.08;;
22046;SDS011;11187;49.412;20.956;2023-12-20T02:01:22;28.17;;;25.45;;
22046;SDS011;11187;49.412;20.956;2023-12-20T02:04:09;28.45;;;25.55;;
22046;SDS011;11187;49.412;20.956;2023-12-20T02:06:43;30.55;;;26.88;;
22046;SDS011;11187;49.412;20.956;2023-12-20T02:09:38;29.92;;;26.27;;
22046;SDS011;11187;49.412;20.956;2023-12-20T02:12:31;28.50;;;25.67;;
22046;SDS011;11187;49.412;20.956;2023-12-20T02:15:11;28.05;;;25.17;;
22046;SDS011;11187;49.412;20.956;2023-12-20T02:17:53;28.80;;;25.75;;
22046;SDS011;11187;49.412;20.956;2023-12-20T02:20:34;29.20;;;26.20;;
22046;SDS011;11187;49.412;20.956;2023-12-20T02:23:14;29.98;;;26.85;;
22046;SDS011;11187;49.412;20.956;2023-12-20T02:25:54;30.13;;;26.83;;
22046;SDS011;11187;49.412;20.956;2023-12-20T02:28:34;30.17;;;25.73;;
22046;SDS011;11187;49.412;20.956;2023-12-20T02:31:14;29.30;;;25.90;;
22046;SDS011;11187;49.412;20.956;2023-12-20T02:33:55;30.50;;;26.20;;
22046;SDS011;11187;49.412;20.956;2023-12-20T02:36:35;37.05;;;25.42;;
22046;SDS011;11187;49.412;20.956;2023-12-20T02:39:22;29.38;;;26.20;;
22046;SDS011;11187;49.412;20.956;2023-12-20T02:42:02;30.30;;;26.73;;
22046;SDS011;11187;49.412;20.956;2023-12-20T02:44:52;29.27;;;26.13;;
22046;SDS011;11187;49.412;20.956;2023-12-20T02:47:32;26.75;;;23.73;;
22046;SDS011;11187;49.412;20.956;2023-12-20T02:50:20;32.25;;;25.27;;
22046;SDS011;11187;49.412;20.956;2023-12-20T02:52:53;30.42;;;25.52;;
22046;SDS011;11187;49.412;20.956;2023-12-20T02:55:40;29.63;;;26.42;;
22046;SDS011;11187;49.412;20.956;2023-12-20T02:58:34;27.35;;;24.48;;
22046;SDS011;11187;49.412;20.956;2023-12-20T03:01:08;27.48;;;24.13;;
22046;SDS011;11187;49.412;20.956;2023-12-20T03:03:54;27.33;;;24.38;;
22046;SDS011;11187;49.412;20.956;2023-12-20T03:06:28;28.75;;;25.60;;
22046;SDS011;11187;49.412;20.956;2023-12-20T03:09:14;28.13;;;25.10;;
22046;SDS011;11187;49.412;20.956;2023-12-20T03:11:48;29.60;;;25.08;;
22046;SDS011;11187;49.412;20.956;2023-12-20T03:14:34;27.75;;;24.90;;
22046;SDS011;11187;49.412;20.956;2023-12-20T03:17:08;28.23;;;25.23;;
22046;SDS011;11187;49.412;20.956;2023-12-20T03:19:54;28.77;;;25.67;;
22046;SDS011;11187;49.412;20.956;2023-12-20T03:22:28;27.77;;;24.85;;
22046;SDS011;11187;49.412;20.956;2023-12-20T03:25:14;27.65;;;24.92;;
22046;SDS011;11187;49.412;20.956;2023-12-20T03:27:48;27.13;;;23.88;;
22046;SDS011;11187;49.412;20.956;2023-12-20T03:30:34;27.80;;;25.23;;
22046;SDS011;11187;49.412;20.956;2023-12-20T03:33:08;29.42;;;26.52;;
22046;SDS011;11187;49.412;20.956;2023-12-20T03:35:54;28.05;;;24.30;;
22046;SDS011;11187;49.412;20.956;2023-12-20T03:38:28;29.40;;;25.20;;
22046;SDS011;11187;49.412;20.956;2023-12-20T03:41:14;27.67;;;24.80;;
22046;SDS011;11187;49.412;20.956;2023-12-20T03:43:48;30.05;;;26.20;;
22046;SDS011;11187;49.412;20.956;2023-12-20T03:46:34;27.75;;;24.42;;
22046;SDS011;11187;49.412;20.956;2023-12-20T03:49:08;27.35;;;24.60;;
22046;SDS011;11187;49.412;20.956;2023-12-20T03:51:54;25.55;;;22.42;;
22046;SDS011;11187;49.412;20.956;2023-12-20T03:54:28;26.75;;;23.98;;
22046;SDS011;11187;49.412;20.956;2023-12-20T03:57:16;26.85;;;24.25;;
22046;SDS011;11187;49.412;20.956;2023-12-20T03:59:50;27.13;;;24.40;;
22046;SDS011;11187;49.412;20.956;2023-12-20T04:02:40;28.08;;;25.08;;
22046;SDS011;11187;49.412;20.956;2023-12-20T04:05:14;27.23;;;24.33;;
22046;SDS011;11187;49.412;20.956;2023-12-20T04:08:00;28.95;;;25.50;;
22046;SDS011;11187;49.412;20.956;2023-12-20T04:10:35;25.85;;;23.23;;
22046;SDS011;11187;49.412;20.956;2023-12-20T04:13:31;25.80;;;23.17;;
22046;SDS011;11187;49.412;20.956;2023-12-20T04:16:11;26.27;;;23.73;;
22046;SDS011;11187;49.412;20.956;2023-12-20T04:18:51;25.85;;;23.10;;
22046;SDS011;11187;49.412;20.956;2023-12-20T04:21:31;25.63;;;22.00;;
22046;SDS011;11187;49.412;20.956;2023-12-20T04:24:11;25.92;;;23.17;;
22046;SDS011;11187;49.412;20.956;2023-12-20T04:26:51;28.58;;;24.08;;
22046;SDS011;11187;49.412;20.956;2023-12-20T04:29:31;26.77;;;24.00;;
22046;SDS011;11187;49.412;20.956;2023-12-20T04:32:25;27.48;;;24.45;;
22046;SDS011;11187;49.412;20.956;2023-12-20T04:35:19;26.58;;;23.67;;
22046;SDS011;11187;49.412;20.956;2023-12-20T04:38:13;24.98;;;22.33;;
22046;SDS011;11187;49.412;20.956;2023-12-20T04:41:07;25.92;;;23.42;;
22046;SDS011;11187;49.412;20.956;2023-12-20T04:43:41;25.52;;;22.92;;
22046;SDS011;11187;49.412;20.956;2023-12-20T04:46:37;27.70;;;24.77;;
22046;SDS011;11187;49.412;20.956;2023-12-20T04:49:31;27.08;;;24.30;;
22046;SDS011;11187;49.412;20.956;2023-12-20T04:52:05;26.23;;;23.58;;
22046;SDS011;11187;49.412;20.956;2023-12-20T04:54:51;25.75;;;23.15;;
22046;SDS011;11187;49.412;20.956;2023-12-20T04:57:45;32.47;;;23.85;;
22046;SDS011;11187;49.412;20.956;2023-12-20T05:00:39;25.77;;;23.25;;
22046;SDS011;11187;49.412;20.956;2023-12-20T05:03:13;27.60;;;24.65;;
22046;SDS011;11187;49.412;20.956;2023-12-20T05:06:07;28.00;;;24.80;;
22046;SDS011;11187;49.412;20.956;2023-12-20T05:08:42;27.88;;;25.00;;
22046;SDS011;11187;49.412;20.956;2023-12-20T05:11:35;25.35;;;22.55;;
22046;SDS011;11187;49.412;20.956;2023-12-20T05:14:29;25.15;;;22.50;;
22046;SDS011;11187;49.412;20.956;2023-12-20T05:17:23;27.20;;;24.50;;
22046;SDS011;11187;49.412;20.956;2023-12-20T05:20:17;25.15;;;22.55;;
22046;SDS011;11187;49.412;20.956;2023-12-20T05:23:11;26.33;;;23.77;;
22046;SDS011;11187;49.412;20.956;2023-12-20T05:25:46;25.52;;;22.77;;
22046;SDS011;11187;49.412;20.956;2023-12-20T05:28:33;26.30;;;23.52;;
22046;SDS011;11187;49.412;20.956;2023-12-20T05:31:07;26.63;;;23.83;;
22046;SDS011;11187;49.412;20.956;2023-12-20T05:34:01;26.02;;;22.45;;
22046;SDS011;11187;49.412;20.956;2023-12-20T05:36:58;25.23;;;22.33;;
22046;SDS011;11187;49.412;20.956;2023-12-20T05:39:32;26.08;;;23.55;;
22046;SDS011;11187;49.412;20.956;2023-12-20T05:42:19;29.73;;;25.02;;
22046;SDS011;11187;49.412;20.956;2023-12-20T05:44:53;29.67;;;24.30;;
22046;SDS011;11187;49.412;20.956;2023-12-20T05:47:39;25.77;;;23.08;;
22046;SDS011;11187;49.412;20.956;2023-12-20T05:50:13;27.35;;;24.45;;
22046;SDS011;11187;49.412;20.956;2023-12-20T05:53:01;28.38;;;25.42;;
22046;SDS011;11187;49.412;20.956;2023-12-20T05:55:36;25.83;;;22.67;;
22046;SDS011;11187;49.412;20.956;2023-12-20T05:58:23;22.73;;;20.42;;
22046;SDS011;11187;49.412;20.956;2023-12-20T06:00:57;27.23;;;24.08;;
22046;SDS011;11187;49.412;20.956;2023-12-20T06:03:51;28.48;;;22.83;;
22046;SDS011;11187;49.412;20.956;2023-12-20T06:06:25;26.38;;;23.08;;
22046;SDS011;11187;49.412;20.956;2023-12-20T06:09:19;27.55;;;24.13;;
22046;SDS011;11187;49.412;20.956;2023-12-20T06:12:13;23.40;;;21.02;;
22046;SDS011;11187;49.412;20.956;2023-12-20T06:14:47;24.70;;;20.38;;
22046;SDS011;11187;49.412;20.956;2023-12-20T06:17:33;25.55;;;21.60;;
22046;SDS011;11187;49.412;20.956;2023-12-20T06:20:08;24.15;;;21.38;;
22046;SDS011;11187;49.412;20.956;2023-12-20T06:22:55;28.50;;;25.42;;
22046;SDS011;11187;49.412;20.956;2023-12-20T06:25:29;28.02;;;25.02;;
22046;SDS011;11187;49.412;20.956;2023-12-20T06:28:15;28.08;;;22.50;;
22046;SDS011;11187;49.412;20.956;2023-12-20T06:31:09;27.95;;;20.50;;
22046;SDS011;11187;49.412;20.956;2023-12-20T06:34:03;27.30;;;21.80;;
22046;SDS011;11187;49.412;20.956;2023-12-20T06:36:57;25.23;;;22.50;;
22046;SDS011;11187;49.412;20.956;2023-12-20T06:39:31;27.33;;;23.42;;
22046;SDS011;11187;49.412;20.956;2023-12-20T06:42:17;26.48;;;21.60;;
22046;SDS011;11187;49.412;20.956;2023-12-20T06:44:51;27.92;;;22.63;;
22046;SDS011;11187;49.412;20.956;2023-12-20T06:47:37;25.13;;;20.58;;
22046;SDS011;11187;49.412;20.956;2023-12-20T06:50:11;25.25;;;21.38;;
22046;SDS011;11187;49.412;20.956;2023-12-20T06:53:06;26.10;;;19.40;;
22046;SDS011;11187;49.412;20.956;2023-12-20T06:55:59;26.05;;;20.40;;
22046;SDS011;11187;49.412;20.956;2023-12-20T06:58:58;24.10;;;18.88;;
22046;SDS011;11187;49.412;20.956;2023-12-20T07:01:32;27.63;;;19.58;;
22046;SDS011;11187;49.412;20.956;2023-12-20T07:04:19;27.17;;;19.95;;
22046;SDS011;11187;49.412;20.956;2023-12-20T07:06:54;24.20;;;19.92;;
22046;SDS011;11187;49.412;20.956;2023-12-20T07:09:47;26.85;;;20.63;;
22046;SDS011;11187;49.412;20.956;2023-12-20T07:12:41;23.05;;;20.27;;
22046;SDS011;11187;49.412;20.956;2023-12-20T07:15:15;22.70;;;20.50;;
22046;SDS011;11187;49.412;20.956;2023-12-20T07:18:04;22.95;;;20.65;;
22046;SDS011;11187;49.412;20.956;2023-12-20T07:20:39;20.88;;;18.40;;
22046;SDS011;11187;49.412;20.956;2023-12-20T07:23:25;24.77;;;18.50;;
22046;SDS011;11187;49.412;20.956;2023-12-20T07:25:59;22.17;;;19.70;;
22046;SDS011;11187;49.412;20.956;2023-12-20T07:28:52;27.58;;;19.98;;
22046;SDS011;11187;49.412;20.956;2023-12-20T07:31:26;22.13;;;17.27;;
22046;SDS011;11187;49.412;20.956;2023-12-20T07:34:12;25.48;;;21.73;;
22046;SDS011;11187;49.412;20.956;2023-12-20T07:36:46;25.48;;;19.58;;
22046;SDS011;11187;49.412;20.956;2023-12-20T07:39:42;22.05;;;19.13;;
22046;SDS011;11187;49.412;20.956;2023-12-20T07:42:16;24.33;;;19.30;;
22046;SDS011;11187;49.412;20.956;2023-12-20T07:45:09;24.02;;;19.75;;
22046;SDS011;11187;49.412;20.956;2023-12-20T07:47:52;25.10;;;18.75;;
22046;SDS011;11187;49.412;20.956;2023-12-20T07:50:33;23.65;;;20.67;;
22046;SDS011;11187;49.412;20.956;2023-12-20T07:53:12;29.15;;;22.05;;
22046;SDS011;11187;49.412;20.956;2023-12-20T07:55:59;22.42;;;18.63;;
22046;SDS011;11187;49.412;20.956;2023-12-20T07:58:53;26.67;;;18.23;;
22046;SDS011;11187;49.412;20.956;2023-12-20T08:01:27;28.30;;;20.35;;
22046;SDS011;11187;49.412;20.956;2023-12-20T08:04:20;29.10;;;19.85;;
22046;SDS011;11187;49.412;20.956;2023-12-20T08:07:14;29.98;;;19.83;;
22046;SDS011;11187;49.412;20.956;2023-12-20T08:09:48;21.13;;;16.58;;
22046;SDS011;11187;49.412;20.956;2023-12-20T08:12:43;21.35;;;18.08;;
22046;SDS011;11187;49.412;20.956;2023-12-20T08:15:17;24.73;;;18.77;;
22046;SDS011;11187;49.412;20.956;2023-12-20T08:18:10;26.10;;;18.98;;
22046;SDS011;11187;49.412;20.956;2023-12-20T08:20:44;20.52;;;18.10;;
22046;SDS011;11187;49.412;20.956;2023-12-20T08:23:32;23.02;;;18.67;;
22046;SDS011;11187;49.412;20.956;2023-12-20T08:26:06;22.92;;;19.77;;
22046;SDS011;11187;49.412;20.956;2023-12-20T08:28:53;26.65;;;21.88;;
22046;SDS011;11187;49.412;20.956;2023-12-20T08:31:28;25.65;;;19.45;;
22046;SDS011;11187;49.412;20.956;2023-12-20T08:34:22;26.05;;;19.02;;
22046;SDS011;11187;49.412;20.956;2023-12-20T08:36:56;22.10;;;19.80;;
22046;SDS011;11187;49.412;20.956;2023-12-20T08:39:43;26.20;;;19.55;;
22046;SDS011;11187;49.412;20.956;2023-12-20T08:42:17;26.67;;;20.23;;
22046;SDS011;11187;49.412;20.956;2023-12-20T08:45:10;26.58;;;20.95;;
22046;SDS011;11187;49.412;20.956;2023-12-20T08:48:04;29.02;;;21.02;;
22046;SDS011;11187;49.412;20.956;2023-12-20T08:50:58;29.13;;;20.50;;
22046;SDS011;11187;49.412;20.956;2023-12-20T08:53:55;28.20;;;20.65;;
22046;SDS011;11187;49.412;20.956;2023-12-20T08:56:29;26.17;;;20.35;;
22046;SDS011;11187;49.412;20.956;2023-12-20T08:59:15;25.35;;;22.40;;
22046;SDS011;11187;49.412;20.956;2023-12-20T09:01:49;24.77;;;18.55;;
22046;SDS011;11187;49.412;20.956;2023-12-20T09:04:35;24.70;;;19.65;;
22046;SDS011;11187;49.412;20.956;2023-12-20T09:07:22;23.52;;;18.50;;
22046;SDS011;11187;49.412;20.956;2023-12-20T09:10:19;23.13;;;17.48;;
22046;SDS011;11187;49.412;20.956;2023-12-20T09:12:55;25.10;;;20.52;;
22046;SDS011;11187;49.412;20.956;2023-12-20T09:15:43;27.50;;;20.65;;
22046;SDS011;11187;49.412;20.956;2023-12-20T09:18:17;27.60;;;19.27;;
22046;SDS011;11187;49.412;20.956;2023-12-20T09:21:10;27.83;;;21.52;;
22046;SDS011;11187;49.412;20.956;2023-12-20T09:23:44;26.10;;;19.48;;
22046;SDS011;11187;49.412;20.956;2023-12-20T09:26:30;25.83;;;19.08;;
22046;SDS011;11187;49.412;20.956;2023-12-20T09:29:04;26.75;;;19.17;;
22046;SDS011;11187;49.412;20.956;2023-12-20T09:32:01;30.42;;;21.92;;
22046;SDS011;11187;49.412;20.956;2023-12-20T09:34:35;25.42;;;19.25;;
22046;SDS011;11187;49.412;20.956;2023-12-20T09:37:28;26.60;;;19.20;;
22046;SDS011;11187;49.412;20.956;2023-12-20T09:40:22;21.52;;;17.00;;
22046;SDS011;11187;49.412;20.956;2023-12-20T09:43:22;25.10;;;19.70;;
22046;SDS011;11187;49.412;20.956;2023-12-20T09:46:17;28.58;;;21.60;;
22046;SDS011;11187;49.412;20.956;2023-12-20T09:49:18;28.98;;;20.13;;
22046;SDS011;11187;49.412;20.956;2023-12-20T09:51:53;22.52;;;19.63;;
22046;SDS011;11187;49.412;20.956;2023-12-20T09:54:40;26.17;;;20.67;;
22046;SDS011;11187;49.412;20.956;2023-12-20T09:57:16;22.60;;;18.17;;
22046;SDS011;11187;49.412;20.956;2023-12-20T10:00:10;27.58;;;21.90;;
22046;SDS011;11187;49.412;20.956;2023-12-20T10:02:50;23.75;;;17.00;;
22046;SDS011;11187;49.412;20.956;2023-12-20T10:05:43;28.02;;;18.23;;
22046;SDS011;11187;49.412;20.956;2023-12-20T10:08:17;25.60;;;18.33;;
22046;SDS011;11187;49.412;20.956;2023-12-20T10:11:06;29.13;;;22.27;;
22046;SDS011;11187;49.412;20.956;2023-12-20T10:13:40;28.80;;;21.65;;
22046;SDS011;11187;49.412;20.956;2023-12-20T10:16:34;24.70;;;17.10;;
22046;SDS011;11187;49.412;20.956;2023-12-20T10:19:08;28.20;;;22.95;;
22046;SDS011;11187;49.412;20.956;2023-12-20T10:22:04;28.02;;;21.73;;
22046;SDS011;11187;49.412;20.956;2023-12-20T10:24:38;26.58;;;19.75;;
22046;SDS011;11187;49.412;20.956;2023-12-20T10:27:26;27.33;;;20.30;;
22046;SDS011;11187;49.412;20.956;2023-12-20T10:30:07;26.23;;;17.88;;
22046;SDS011;11187;49.412;20.956;2023-12-20T10:32:47;29.25;;;20.30;;
22046;SDS011;11187;49.412;20.956;2023-12-20T10:35:28;29.58;;;18.73;;
22046;SDS011;11187;49.412;20.956;2023-12-20T10:38:07;25.63;;;18.08;;
22046;SDS011;11187;49.412;20.956;2023-12-20T10:40:49;23.42;;;19.38;;
22046;SDS011;11187;49.412;20.956;2023-12-20T10:43:40;25.48;;;17.67;;
22046;SDS011;11187;49.412;20.956;2023-12-20T10:46:15;22.85;;;18.67;;
22046;SDS011;11187;49.412;20.956;2023-12-20T10:49:02;27.65;;;20.33;;
22046;SDS011;11187;49.412;20.956;2023-12-20T10:51:38;26.80;;;19.85;;
22046;SDS011;11187;49.412;20.956;2023-12-20T10:54:24;24.85;;;19.17;;
22046;SDS011;11187;49.412;20.956;2023-12-20T10:56:58;26.40;;;18.23;;
22046;SDS011;11187;49.412;20.956;2023-12-20T10:59:51;29.48;;;20.27;;
22046;SDS011;11187;49.412;20.956;2023-12-20T11:02:48;28.67;;;19.10;;
22046;SDS011;11187;49.412;20.956;2023-12-20T11:09:12;28.65;;;19.02;;
22046;SDS011;11187;49.412;20.956;2023-12-20T11:11:34;26.00;;;17.38;;
22046;SDS011;11187;49.412;20.956;2023-12-20T11:14:34;22.92;;;16.45;;
22046;SDS011;11187;49.412;20.956;2023-12-20T11:17:11;20.55;;;16.38;;
22046;SDS011;11187;49.412;20.956;2023-12-20T11:20:06;21.55;;;17.17;;
22046;SDS011;11187;49.412;20.956;2023-12-20T11:22:51;20.65;;;17.48;;
22046;SDS011;11187;49.412;20.956;2023-12-20T11:25:47;21.00;;;17.45;;
22046;SDS011;11187;49.412;20.956;2023-12-20T11:28:48;22.45;;;17.20;;
22046;SDS011;11187;49.412;20.956;2023-12-20T11:31:22;23.83;;;17.35;;
22046;SDS011;11187;49.412;20.956;2023-12-20T11:34:16;22.65;;;17.70;;
22046;SDS011;11187;49.412;20.956;2023-12-20T11:36:56;23.80;;;19.08;;
22046;SDS011;11187;49.412;20.956;2023-12-20T11:40:34;26.38;;;18.23;;
22046;SDS011;11187;49.412;20.956;2023-12-20T11:42:51;23.02;;;17.20;;
22046;SDS011;11187;49.412;20.956;2023-12-20T11:45:37;28.33;;;21.05;;
22046;SDS011;11187;49.412;20.956;2023-12-20T11:48:23;27.58;;;19.13;;
22046;SDS011;11187;49.412;20.956;2023-12-20T11:51:17;23.13;;;18.60;;
22046;SDS011;11187;49.412;20.956;2023-12-20T11:54:11;27.52;;;22.10;;
22046;SDS011;11187;49.412;20.956;2023-12-20T11:56:46;22.42;;;19.48;;
22046;SDS011;11187;49.412;20.956;2023-12-20T11:59:33;24.15;;;20.23;;
22046;SDS011;11187;49.412;20.956;2023-12-20T12:02:07;26.33;;;20.27;;
22046;SDS011;11187;49.412;20.956;2023-12-20T12:05:01;28.02;;;19.08;;
22046;SDS011;11187;49.412;20.956;2023-12-20T12:07:34;24.80;;;20.55;;
22046;SDS011;11187;49.412;20.956;2023-12-20T12:10:29;28.67;;;20.38;;
22046;SDS011;11187;49.412;20.956;2023-12-20T12:13:02;27.55;;;20.77;;
22046;SDS011;11187;49.412;20.956;2023-12-20T12:15:56;27.75;;;22.05;;
22046;SDS011;11187;49.412;20.956;2023-12-20T12:18:56;27.77;;;20.13;;
22046;SDS011;11187;49.412;20.956;2023-12-20T12:21:30;27.23;;;20.38;;
22046;SDS011;11187;49.412;20.956;2023-12-20T12:24:19;24.45;;;19.40;;
22046;SDS011;11187;49.412;20.956;2023-12-20T12:26:57;24.70;;;22.08;;
22046;SDS011;11187;49.412;20.956;2023-12-20T12:30:01;24.48;;;20.05;;
22046;SDS011;11187;49.412;20.956;2023-12-20T12:32:57;24.98;;;19.75;;
22046;SDS011;11187;49.412;20.956;2023-12-20T12:35:50;27.08;;;19.88;;
22046;SDS011;11187;49.412;20.956;2023-12-20T12:38:31;26.58;;;21.98;;
22046;SDS011;11187;49.412;20.956;2023-12-20T12:41:17;27.55;;;22.25;;
22046;SDS011;11187;49.412;20.956;2023-12-20T12:43:58;27.52;;;22.40;;
22046;SDS011;11187;49.412;20.956;2023-12-20T12:46:51;27.17;;;21.75;;
22046;SDS011;11187;49.412;20.956;2023-12-20T12:49:33;24.35;;;21.70;;
22046;SDS011;11187;49.412;20.956;2023-12-20T12:52:13;24.98;;;20.58;;
22046;SDS011;11187;49.412;20.956;2023-12-20T12:54:54;36.70;;;22.83;;
22046;SDS011;11187;49.412;20.956;2023-12-20T12:57:33;30.30;;;25.08;;
22046;SDS011;11187;49.412;20.956;2023-12-20T13:00:14;32.72;;;25.15;;
22046;SDS011;11187;49.412;20.956;2023-12-20T13:02:54;30.40;;;22.92;;
22046;SDS011;11187;49.412;20.956;2023-12-20T13:05:35;32.90;;;24.25;;
22046;SDS011;11187;49.412;20.956;2023-12-20T13:08:22;30.17;;;22.05;;
22046;SDS011;11187;49.412;20.956;2023-12-20T13:11:02;35.83;;;22.92;;
22046;SDS011;11187;49.412;20.956;2023-12-20T13:13:41;31.73;;;24.70;;
22046;SDS011;11187;49.412;20.956;2023-12-20T13:16:22;33.42;;;22.80;;
22046;SDS011;11187;49.412;20.956;2023-12-20T13:19:08;31.77;;;24.08;;
22046;SDS011;11187;49.412;20.956;2023-12-20T13:21:43;28.85;;;23.67;;
22046;SDS011;11187;49.412;20.956;2023-12-20T13:24:29;35.70;;;23.38;;
22046;SDS011;11187;49.412;20.956;2023-12-20T13:27:10;49.13;;;27.98;;
22046;SDS011;11187;49.412;20.956;2023-12-20T13:29:57;52.78;;;31.63;;
22046;SDS011;11187;49.412;20.956;2023-12-20T13:32:31;58.05;;;35.72;;
22046;SDS011;11187;49.412;20.956;2023-12-20T13:35:17;52.25;;;32.53;;
22046;SDS011;11187;49.412;20.956;2023-12-20T13:37:59;76.93;;;42.75;;
22046;SDS011;11187;49.412;20.956;2023-12-20T13:40:40;77.60;;;44.83;;
22046;SDS011;11187;49.412;20.956;2023-12-20T13:43:21;57.33;;;35.33;;
22046;SDS011;11187;49.412;20.956;2023-12-20T13:46:08;49.75;;;30.30;;
22046;SDS011;11187;49.412;20.956;2023-12-20T13:48:41;53.97;;;31.02;;
22046;SDS011;11187;49.412;20.956;2023-12-20T13:51:27;67.53;;;35.47;;
22046;SDS011;11187;49.412;20.956;2023-12-20T13:54:02;94.97;;;43.40;;
22046;SDS011;11187;49.412;20.956;2023-12-20T13:56:50;88.05;;;40.95;;
22046;SDS011;11187;49.412;20.956;2023-12-20T13:59:57;78.93;;;36.15;;
22046;SDS011;11187;49.412;20.956;2023-12-20T14:02:31;62.92;;;34.83;;
22046;SDS011;11187;49.412;20.956;2023-12-20T14:05:25;52.63;;;31.43;;
22046;SDS011;11187;49.412;20.956;2023-12-20T14:07:59;47.28;;;29.30;;
22046;SDS011;11187;49.412;20.956;2023-12-20T14:10:53;51.60;;;30.38;;
22046;SDS011;11187;49.412;20.956;2023-12-20T14:13:47;41.60;;;26.88;;
22046;SDS011;11187;49.412;20.956;2023-12-20T14:16:21;38.95;;;26.20;;
22046;SDS011;11187;49.412;20.956;2023-12-20T14:19:07;39.83;;;28.25;;
22046;SDS011;11187;49.412;20.956;2023-12-20T14:21:43;39.55;;;26.30;;
22046;SDS011;11187;49.412;20.956;2023-12-20T14:24:30;38.25;;;28.17;;
22046;SDS011;11187;49.412;20.956;2023-12-20T14:27:03;37.45;;;26.77;;
22046;SDS011;11187;49.412;20.956;2023-12-20T14:29:56;37.60;;;27.67;;
22046;SDS011;11187;49.412;20.956;2023-12-20T14:32:51;35.97;;;26.15;;
22046;SDS011;11187;49.412;20.956;2023-12-20T14:35:24;35.33;;;26.30;;
22046;SDS011;11187;49.412;20.956;2023-12-20T14:38:17;39.53;;;27.35;;
22046;SDS011;11187;49.412;20.956;2023-12-20T14:40:52;38.70;;;28.77;;
22046;SDS011;11187;49.412;20.956;2023-12-20T14:43:38;34.42;;;28.83;;
22046;SDS011;11187;49.412;20.956;2023-12-20T14:46:19;40.92;;;27.50;;
22046;SDS011;11187;49.412;20.956;2023-12-20T14:48:59;35.25;;;28.00;;
22046;SDS011;11187;49.412;20.956;2023-12-20T14:51:44;37.80;;;27.92;;
22046;SDS011;11187;49.412;20.956;2023-12-20T14:54:25;35.13;;;26.83;;
22046;SDS011;11187;49.412;20.956;2023-12-20T14:57:11;40.67;;;29.20;;
22046;SDS011;11187;49.412;20.956;2023-12-20T15:00:06;37.00;;;28.25;;
22046;SDS011;11187;49.412;20.956;2023-12-20T15:03:04;35.63;;;29.25;;
22046;SDS011;11187;49.412;20.956;2023-12-20T15:05:38;34.42;;;28.15;;
22046;SDS011;11187;49.412;20.956;2023-12-20T15:08:32;34.10;;;27.52;;
22046;SDS011;11187;49.412;20.956;2023-12-20T15:11:26;31.48;;;27.08;;
22046;SDS011;11187;49.412;20.956;2023-12-20T15:14:00;36.10;;;28.27;;
22046;SDS011;11187;49.412;20.956;2023-12-20T15:16:54;35.85;;;25.55;;
22046;SDS011;11187;49.412;20.956;2023-12-20T15:19:28;30.08;;;25.10;;
22046;SDS011;11187;49.412;20.956;2023-12-20T15:22:14;31.55;;;27.77;;
22046;SDS011;11187;49.412;20.956;2023-12-20T15:25:09;32.38;;;25.85;;
22046;SDS011;11187;49.412;20.956;2023-12-20T15:28:07;31.58;;;28.27;;
22046;SDS011;11187;49.412;20.956;2023-12-20T15:30:41;30.13;;;26.92;;
22046;SDS011;11187;49.412;20.956;2023-12-20T15:33:27;32.15;;;27.17;;
22046;SDS011;11187;49.412;20.956;2023-12-20T15:36:01;32.28;;;28.50;;
22046;SDS011;11187;49.412;20.956;2023-12-20T15:38:47;40.42;;;28.40;;
22046;SDS011;11187;49.412;20.956;2023-12-20T15:41:28;38.00;;;29.55;;
22046;SDS011;11187;49.412;20.956;2023-12-20T15:44:15;35.92;;;29.33;;
22046;SDS011;11187;49.412;20.956;2023-12-20T15:46:49;37.75;;;28.75;;
22046;SDS011;11187;49.412;20.956;2023-12-20T15:49:37;36.90;;;28.88;;